Terminal Aerodrome Forecast
Issued by NWS Goodland, KS

Home | Current Version | Previous Version | Text Only | Print | Product List | Glossary On
Versions: 1 2 3 4 5 6 7 8 9 10 11 12 13 14
000
FTUS43 KGLD 222300 RRA
TAFGLD
TAF
KGLD 222346Z 2300/2324 13006KT P6SM FEW070
     FM231000 11010KT 6SM BR FEW010 SCT250
     FM231500 15012KT P6SM FEW250=

USA.gov is the U.S. government's official web portal to all federal, state and local government web resources and services.